Time;durP1;ratioP1;P1;durP2;ratioP2;P2;SDS_P1;SDS_P2;PMS_P1;PMS_P2;Temp;Humidity;BMP_temperature;BMP_pressure;BME280_temperature;BME280_humidity;BME280_pressure;Samples;Min_cycle;Max_cycle;Signal;HPM_P1;HPM_P2
2022/11/13 00:01:58;;;;;;;23.08;18.60;;;13.30;99.90;;;;;;5055762;28;20029;-75
2022/11/13 00:04:24;;;;;;;21.77;18.77;;;13.30;99.90;;;;;;5055290;28;20478;-73
2022/11/13 00:06:49;;;;;;;21.02;17.55;;;13.30;99.90;;;;;;5056272;28;20474;-73
2022/11/13 00:09:15;;;;;;;24.23;18.23;;;13.30;99.90;;;;;;5056316;28;20488;-75
2022/11/13 00:11:41;;;;;;;22.60;18.02;;;13.20;99.90;;;;;;5056468;28;20512;-73
2022/11/13 00:14:06;;;;;;;20.48;16.95;;;13.30;99.90;;;;;;5056929;28;20013;-73
2022/11/13 00:16:32;;;;;;;22.35;18.08;;;13.30;99.90;;;;;;5057870;28;20021;-73
2022/11/13 00:18:57;;;;;;;19.00;16.83;;;13.30;99.90;;;;;;5056589;28;20021;-73
2022/11/13 00:21:26;;;;;;;20.42;16.23;;;13.30;99.90;;;;;;5056346;28;20048;-74
2022/11/13 00:23:52;;;;;;;23.63;17.00;;;13.30;99.90;;;;;;5056419;28;20025;-74
2022/11/13 00:26:23;;;;;;;19.15;16.42;;;13.30;99.90;;;;;;5057494;28;20017;-73
2022/11/13 00:28:59;;;;;;;21.00;17.00;;;13.20;99.90;;;;;;5057227;28;20025;-74
2022/11/13 00:31:26;;;;;;;22.50;17.25;;;13.20;99.90;;;;;;5057263;28;20036;-74
2022/11/13 00:33:52;;;;;;;19.88;16.52;;;13.20;99.90;;;;;;5056569;28;20040;-75
2022/11/13 00:36:22;;;;;;;18.90;16.52;;;13.20;99.90;;;;;;5055842;28;20013;-74
2022/11/13 00:38:48;;;;;;;18.95;16.35;;;13.20;99.90;;;;;;5055886;28;20112;-75
2022/11/13 00:41:14;;;;;;;17.27;15.35;;;13.20;99.90;;;;;;5055579;28;20056;-74
2022/11/13 00:43:40;;;;;;;17.83;15.45;;;13.20;99.90;;;;;;5056004;28;20033;-75
2022/11/13 00:46:06;;;;;;;20.90;16.13;;;13.20;99.90;;;;;;5056036;28;20100;-75
2022/11/13 00:48:32;;;;;;;18.67;16.55;;;13.20;99.90;;;;;;5054912;28;20454;-75
2022/11/13 00:50:58;;;;;;;19.13;16.00;;;13.20;99.90;;;;;;5055559;28;20028;-75
2022/11/13 00:53:23;;;;;;;19.42;15.75;;;13.20;99.90;;;;;;5055451;28;20036;-74
2022/11/13 00:55:49;;;;;;;17.55;15.70;;;13.20;99.90;;;;;;5055731;28;20485;-75
2022/11/13 00:58:15;;;;;;;18.38;15.23;;;13.20;99.90;;;;;;5055319;28;20107;-74
2022/11/13 01:00:42;;;;;;;17.42;15.40;;;13.20;99.90;;;;;;5055600;28;20056;-75
2022/11/13 01:03:08;;;;;;;18.80;14.93;;;13.20;99.90;;;;;;5055481;28;20087;-75
2022/11/13 01:05:36;;;;;;;19.85;15.02;;;13.20;99.90;;;;;;5055000;28;20025;-74
2022/11/13 01:08:01;;;;;;;17.17;14.65;;;13.30;99.90;;;;;;5055507;28;20044;-75
2022/11/13 01:10:27;;;;;;;17.95;15.55;;;13.20;99.90;;;;;;5054109;28;20465;-74
2022/11/13 01:12:53;;;;;;;17.02;15.05;;;13.30;99.90;;;;;;5055214;28;20362;-76
2022/11/13 01:15:18;;;;;;;19.25;15.45;;;13.30;99.90;;;;;;5055076;28;20047;-75
2022/11/13 01:17:44;;;;;;;17.77;14.73;;;13.30;99.90;;;;;;5055157;28;20022;-75
2022/11/13 01:20:10;;;;;;;18.25;15.07;;;13.40;99.90;;;;;;5054874;28;20458;-74
2022/11/13 01:22:35;;;;;;;20.15;14.82;;;13.30;99.90;;;;;;5055007;28;20059;-74
2022/11/13 01:25:01;;;;;;;19.45;14.65;;;13.20;99.90;;;;;;5055027;28;20022;-73
2022/11/13 01:27:26;;;;;;;19.55;13.25;;;13.20;99.90;;;;;;5054935;28;20083;-74
2022/11/13 01:29:52;;;;;;;15.95;13.77;;;13.20;99.90;;;;;;5054950;28;20046;-74
2022/11/13 01:32:17;;;;;;;15.90;14.00;;;13.20;99.90;;;;;;5055225;28;20475;-74
2022/11/13 01:34:43;;;;;;;18.27;14.32;;;13.20;99.90;;;;;;5053136;28;20025;-75
2022/11/13 01:37:09;;;;;;;19.83;14.85;;;13.20;99.90;;;;;;5054829;28;20033;-75
2022/11/13 01:39:34;;;;;;;17.98;15.25;;;13.10;99.90;;;;;;5054677;28;20021;-74
2022/11/13 01:42:00;;;;;;;19.65;14.95;;;13.10;99.90;;;;;;5054180;28;20500;-74
2022/11/13 01:44:48;;;;;;;17.80;14.45;;;13.10;99.90;;;;;;5054661;28;20017;-74
2022/11/13 01:47:14;;;;;;;17.90;14.30;;;13.00;99.90;;;;;;5054771;28;20485;-75
2022/11/13 01:49:43;;;;;;;17.90;13.80;;;13.00;99.90;;;;;;5054073;28;20244;-73
2022/11/13 01:52:14;;;;;;;14.30;12.75;;;13.00;99.90;;;;;;5054570;28;20033;-73
2022/11/13 01:54:45;;;;;;;17.15;13.93;;;13.00;99.90;;;;;;5054331;28;20102;-73
2022/11/13 01:57:12;;;;;;;19.27;15.13;;;13.00;99.90;;;;;;5053159;28;20120;-73
2022/11/13 01:59:41;;;;;;;19.33;14.25;;;13.00;99.90;;;;;;5054284;28;20096;-74
2022/11/13 02:02:08;;;;;;;17.30;14.27;;;12.90;99.90;;;;;;5053058;28;20033;-74
2022/11/13 02:04:34;;;;;;;17.85;14.15;;;12.90;99.90;;;;;;5053974;28;20438;-73
2022/11/13 02:07:04;;;;;;;17.25;13.63;;;12.90;99.90;;;;;;5054308;28;20029;-74
2022/11/13 02:09:45;;;;;;;16.75;14.38;;;12.90;99.90;;;;;;5054315;28;20025;-74
2022/11/13 02:12:14;;;;;;;17.70;14.40;;;12.90;99.90;;;;;;5054521;28;20033;-74
2022/11/13 02:14:52;;;;;;;16.38;14.10;;;12.80;99.90;;;;;;5052898;28;20021;-73
2022/11/13 02:17:24;;;;;;;17.13;14.82;;;12.80;99.90;;;;;;5052960;28;20079;-73
2022/11/13 02:19:54;;;;;;;19.35;15.88;;;12.80;99.90;;;;;;5054834;28;20386;-75
2022/11/13 02:22:29;;;;;;;21.60;16.40;;;12.80;99.90;;;;;;5052810;28;20031;-74
2022/11/13 02:24:57;;;;;;;21.70;16.52;;;12.80;99.90;;;;;;5053859;28;20108;-74
2022/11/13 02:27:38;;;;;;;21.80;16.23;;;12.70;99.90;;;;;;5053670;28;20028;-74
2022/11/13 02:30:18;;;;;;;21.38;15.90;;;12.70;99.90;;;;;;5053761;28;20466;-75
2022/11/13 02:32:49;;;;;;;19.42;15.25;;;12.70;99.90;;;;;;5049798;28;20034;-75
2022/11/13 02:35:23;;;;;;;18.80;15.70;;;12.60;99.90;;;;;;5044525;28;20071;-75
2022/11/13 02:37:48;;;;;;;19.38;16.05;;;12.60;99.90;;;;;;5053092;28;20029;-75
2022/11/13 02:40:14;;;;;;;18.42;14.57;;;12.50;99.90;;;;;;5052943;28;20025;-74
2022/11/13 02:42:40;;;;;;;18.42;14.88;;;12.50;99.90;;;;;;5053452;28;20028;-75
2022/11/13 02:45:06;;;;;;;18.33;14.75;;;12.50;99.90;;;;;;5052213;28;20378;-75
2022/11/13 02:47:32;;;;;;;19.95;15.60;;;12.50;99.90;;;;;;5052927;28;20029;-75
2022/11/13 02:49:57;;;;;;;18.50;14.98;;;12.50;99.90;;;;;;5053466;28;20021;-75
2022/11/13 02:52:23;;;;;;;16.52;14.50;;;12.50;99.90;;;;;;5053214;28;20090;-75
2022/11/13 02:54:49;;;;;;;16.90;14.75;;;12.40;99.90;;;;;;5053380;28;20462;-74
2022/11/13 02:57:14;;;;;;;17.50;14.52;;;12.40;99.90;;;;;;5053219;28;20029;-75
2022/11/13 02:59:40;;;;;;;18.85;15.35;;;12.40;99.90;;;;;;5053036;28;20025;-75
2022/11/13 03:02:06;;;;;;;17.58;14.75;;;12.40;99.90;;;;;;5051870;28;20378;-75
2022/11/13 03:04:31;;;;;;;19.73;14.80;;;12.40;99.90;;;;;;5035278;28;20044;-75
2022/11/13 03:06:57;;;;;;;18.40;15.35;;;12.40;99.90;;;;;;5053063;28;20563;-75
2022/11/13 03:09:22;;;;;;;21.67;15.60;;;12.40;99.90;;;;;;5053147;28;20466;-74
2022/11/13 03:11:48;;;;;;;18.25;16.35;;;12.30;99.90;;;;;;5052444;28;20029;-74
2022/11/13 03:14:14;;;;;;;20.15;14.93;;;12.30;99.90;;;;;;5052413;28;20032;-74
2022/11/13 03:16:39;;;;;;;20.42;15.60;;;12.30;99.90;;;;;;5052722;28;20037;-74
2022/11/13 03:19:05;;;;;;;19.65;15.55;;;12.30;99.90;;;;;;5053019;28;20036;-74
2022/11/13 03:21:32;;;;;;;18.95;15.15;;;12.30;99.90;;;;;;5052925;28;20033;-73
2022/11/13 03:23:57;;;;;;;18.55;15.45;;;12.30;99.90;;;;;;5053106;28;20111;-74
2022/11/13 03:26:23;;;;;;;18.60;16.20;;;12.30;99.90;;;;;;5052897;28;20018;-74
2022/11/13 03:28:49;;;;;;;18.08;15.23;;;12.20;99.90;;;;;;5052820;28;20113;-73
2022/11/13 03:31:15;;;;;;;20.50;15.68;;;12.20;99.90;;;;;;5052601;28;20025;-75
2022/11/13 03:33:41;;;;;;;16.40;14.68;;;12.20;99.90;;;;;;5052402;28;20058;-75
2022/11/13 03:36:07;;;;;;;19.15;15.23;;;12.20;99.90;;;;;;5052854;28;20036;-74
2022/11/13 03:38:33;;;;;;;18.13;15.05;;;12.20;99.90;;;;;;5053072;28;20025;-74
2022/11/13 03:40:59;;;;;;;17.90;15.02;;;12.20;99.90;;;;;;5052814;28;20025;-75
2022/11/13 03:43:25;;;;;;;16.95;13.98;;;12.10;99.90;;;;;;5052476;28;20021;-74
2022/11/13 03:45:50;;;;;;;16.60;13.95;;;12.20;99.90;;;;;;5052666;28;20017;-74
2022/11/13 03:48:16;;;;;;;19.33;14.45;;;12.10;99.90;;;;;;5052744;28;20108;-75
2022/11/13 03:50:47;;;;;;;18.83;14.65;;;12.10;99.90;;;;;;5052739;28;20029;-74
2022/11/13 03:53:13;;;;;;;17.70;14.02;;;12.10;99.70;;;;;;5052443;28;20128;-73
2022/11/13 03:55:39;;;;;;;15.43;13.73;;;12.10;99.80;;;;;;5052678;28;20053;-74
2022/11/13 03:58:05;;;;;;;16.17;14.43;;;12.10;99.70;;;;;;5052405;28;20017;-73
2022/11/13 04:00:31;;;;;;;16.70;14.07;;;12.10;99.60;;;;;;5051111;28;20079;-74
2022/11/13 04:02:56;;;;;;;16.17;13.77;;;12.00;99.80;;;;;;5052328;28;20032;-74
2022/11/13 04:05:22;;;;;;;17.10;13.63;;;12.00;99.70;;;;;;5052594;28;20096;-74
2022/11/13 04:07:48;;;;;;;16.20;13.90;;;11.90;99.60;;;;;;5052248;28;20025;-74
2022/11/13 04:10:14;;;;;;;16.33;14.35;;;12.00;99.60;;;;;;5052959;28;20030;-73
2022/11/13 04:12:39;;;;;;;15.95;14.00;;;11.90;99.50;;;;;;5052296;28;20430;-75
2022/11/13 04:15:06;;;;;;;15.73;13.38;;;12.00;99.50;;;;;;5052100;28;20143;-74
2022/11/13 04:17:31;;;;;;;16.48;13.85;;;11.90;99.50;;;;;;5052392;28;20036;-74
2022/11/13 04:19:57;;;;;;;14.88;13.38;;;11.90;99.50;;;;;;5051165;28;20021;-75
2022/11/13 04:22:23;;;;;;;15.45;13.35;;;11.90;99.40;;;;;;5052909;28;20122;-75
2022/11/13 04:24:48;;;;;;;15.95;14.27;;;11.90;99.50;;;;;;5056097;28;20090;-74
2022/11/13 04:27:14;;;;;;;17.15;13.85;;;11.90;99.40;;;;;;5055964;28;20029;-75
2022/11/13 04:29:40;;;;;;;15.20;13.30;;;11.80;99.30;;;;;;5055847;28;20110;-74
2022/11/13 04:32:06;;;;;;;16.63;13.60;;;11.80;99.30;;;;;;5055916;28;20385;-74
2022/11/13 04:34:31;;;;;;;17.35;13.52;;;11.80;99.30;;;;;;5056252;28;20068;-75
2022/11/13 04:36:57;;;;;;;16.63;14.27;;;11.80;99.30;;;;;;5055859;28;20351;-74
2022/11/13 04:39:22;;;;;;;16.15;14.13;;;11.70;99.20;;;;;;5055952;28;20500;-75
2022/11/13 04:44:32;;;;;;;16.38;13.70;;;11.80;99.20;;;;;;5055919;28;20032;-74
2022/11/13 04:46:57;;;;;;;20.92;14.45;;;11.80;99.10;;;;;;5055831;28;20061;-75
2022/11/13 04:49:23;;;;;;;15.50;13.10;;;11.80;99.10;;;;;;5055771;28;20108;-74
2022/11/13 04:51:48;;;;;;;16.90;14.52;;;11.80;99.30;;;;;;5055491;28;20056;-74
2022/11/13 04:54:14;;;;;;;17.02;15.23;;;11.70;99.50;;;;;;5055464;28;20417;-75
2022/11/13 04:56:40;;;;;;;17.17;15.13;;;11.70;99.50;;;;;;5054495;28;20070;-74
2022/11/13 04:59:06;;;;;;;19.80;16.35;;;11.70;99.60;;;;;;5055509;28;20390;-74
2022/11/13 05:01:31;;;;;;;18.85;16.23;;;11.70;99.70;;;;;;5055417;28;20027;-75
2022/11/13 05:03:57;;;;;;;17.95;14.80;;;11.70;99.90;;;;;;5055168;28;20044;-75
2022/11/13 05:06:22;;;;;;;17.92;14.10;;;11.70;99.90;;;;;;5055510;28;20029;-74
2022/11/13 05:08:48;;;;;;;17.80;15.00;;;11.70;99.90;;;;;;5055318;28;20033;-74
2022/11/13 05:11:13;;;;;;;16.77;14.32;;;11.70;99.90;;;;;;5053712;28;20036;-73
2022/11/13 05:13:39;;;;;;;15.32;13.73;;;11.70;99.90;;;;;;5053950;28;20021;-73
2022/11/13 05:16:07;;;;;;;16.08;14.38;;;11.60;99.90;;;;;;5055363;28;20025;-74
2022/11/13 05:18:35;;;;;;;19.58;15.70;;;11.70;99.90;;;;;;5055418;28;20025;-73
2022/11/13 05:21:01;;;;;;;17.98;14.65;;;11.60;99.90;;;;;;5055274;28;20048;-74
2022/11/13 05:23:27;;;;;;;18.08;14.65;;;11.70;99.90;;;;;;5055149;28;20033;-74
2022/11/13 05:25:59;;;;;;;16.65;14.00;;;11.70;99.90;;;;;;5060787;28;20025;-74
2022/11/13 05:28:25;;;;;;;14.48;12.98;;;11.60;99.90;;;;;;5072746;28;20103;-74
2022/11/13 05:30:51;;;;;;;18.58;13.98;;;11.60;99.90;;;;;;5072929;28;20021;-74
2022/11/13 05:33:16;;;;;;;16.88;15.07;;;11.60;99.90;;;;;;5073640;28;20125;-74
2022/11/13 05:35:42;;;;;;;18.60;15.25;;;11.70;99.90;;;;;;5075346;28;20023;-74
2022/11/13 05:38:07;;;;;;;17.83;14.25;;;11.60;99.90;;;;;;5076974;28;20074;-73
2022/11/13 05:40:33;;;;;;;20.35;15.43;;;11.60;99.90;;;;;;5075874;28;20027;-74
2022/11/13 05:42:58;;;;;;;18.38;14.23;;;11.60;99.90;;;;;;5074226;28;20452;-74
2022/11/13 05:45:24;;;;;;;16.83;14.75;;;11.60;99.90;;;;;;5075069;28;20039;-73
2022/11/13 05:47:50;;;;;;;18.27;14.55;;;11.60;99.90;;;;;;5074833;28;20031;-74
2022/11/13 05:50:15;;;;;;;18.40;14.50;;;11.50;99.90;;;;;;5074672;28;20055;-74
2022/11/13 05:52:41;;;;;;;16.52;14.35;;;11.50;99.90;;;;;;5074675;28;20481;-74
2022/11/13 05:55:07;;;;;;;18.70;15.07;;;11.50;99.90;;;;;;5074249;28;20036;-74
2022/11/13 05:57:33;;;;;;;16.60;14.90;;;11.50;99.90;;;;;;5073419;28;20529;-75
2022/11/13 05:59:58;;;;;;;17.63;15.68;;;11.50;99.90;;;;;;5074392;28;20107;-74
2022/11/13 06:02:24;;;;;;;16.73;14.93;;;11.50;99.90;;;;;;5046988;28;20068;-74
2022/11/13 06:04:50;;;;;;;18.10;15.05;;;11.50;99.90;;;;;;5033983;28;20056;-74
2022/11/13 06:07:15;;;;;;;19.67;16.13;;;11.50;99.90;;;;;;5032716;28;20594;-74
2022/11/13 06:09:41;;;;;;;18.83;16.77;;;11.50;99.90;;;;;;5033596;28;20359;-74
2022/11/13 06:12:06;;;;;;;18.38;15.70;;;11.50;99.90;;;;;;5034030;28;20041;-74
2022/11/13 06:14:32;;;;;;;17.95;14.85;;;11.40;99.90;;;;;;5032689;28;20478;-74
2022/11/13 06:16:57;;;;;;;18.20;15.95;;;11.40;99.90;;;;;;5034070;28;20033;-75
2022/11/13 06:19:23;;;;;;;19.48;16.27;;;11.40;99.90;;;;;;5034138;28;20017;-75
2022/11/13 06:21:48;;;;;;;21.35;16.20;;;11.40;99.90;;;;;;5032578;28;20112;-73
2022/11/13 06:24:14;;;;;;;19.42;15.10;;;11.40;99.90;;;;;;5033789;28;20404;-74
2022/11/13 06:26:40;;;;;;;19.75;16.15;;;11.40;99.90;;;;;;5033821;28;20478;-74
2022/11/13 06:29:08;;;;;;;18.13;16.23;;;11.40;99.90;;;;;;5034078;28;20509;-74
2022/11/13 06:31:35;;;;;;;21.42;17.65;;;11.40;99.90;;;;;;5033639;28;20017;-74
2022/11/13 06:34:01;;;;;;;18.83;16.67;;;11.40;99.90;;;;;;5033707;28;20045;-74
2022/11/13 06:36:29;;;;;;;19.90;17.48;;;11.40;99.90;;;;;;5033583;28;20033;-74
2022/11/13 06:38:55;;;;;;;20.33;17.23;;;11.30;99.90;;;;;;5033435;28;20025;-75
2022/11/13 06:41:24;;;;;;;21.95;17.90;;;11.40;99.90;;;;;;5033590;28;20057;-74
2022/11/13 06:43:51;;;;;;;24.40;17.65;;;11.30;99.90;;;;;;5033595;28;20097;-74
2022/11/13 06:46:22;;;;;;;24.10;18.98;;;11.30;99.90;;;;;;5032859;28;20475;-74
2022/11/13 06:48:48;;;;;;;22.75;18.50;;;11.30;99.90;;;;;;5033645;28;20033;-75
2022/11/13 06:51:22;;;;;;;23.40;17.80;;;11.30;99.90;;;;;;5033301;28;20382;-74
2022/11/13 06:53:49;;;;;;;20.42;17.17;;;11.20;99.90;;;;;;5033304;28;20108;-74
2022/11/13 06:56:15;;;;;;;21.48;17.02;;;11.20;99.90;;;;;;5040591;28;20028;-74
2022/11/13 06:58:42;;;;;;;17.45;15.32;;;11.20;99.90;;;;;;5053240;28;20032;-75
2022/11/13 07:01:16;;;;;;;21.80;16.73;;;11.30;99.90;;;;;;5035981;28;20500;-75
2022/11/13 07:03:42;;;;;;;20.92;16.60;;;11.40;99.90;;;;;;5046100;28;20057;-75
2022/11/13 07:06:12;;;;;;;22.55;15.80;;;11.40;99.80;;;;;;5046082;28;20746;-74
2022/11/13 07:08:38;;;;;;;20.88;16.02;;;11.50;99.70;;;;;;5050808;28;20111;-74
2022/11/13 07:11:06;;;;;;;20.58;16.00;;;11.40;99.80;;;;;;5039829;28;20037;-73
2022/11/13 07:13:32;;;;;;;23.95;16.70;;;11.40;99.70;;;;;;5051136;28;20541;-73
2022/11/13 07:16:02;;;;;;;23.95;17.60;;;11.50;99.70;;;;;;5037863;28;20044;-73
2022/11/13 07:18:29;;;;;;;24.35;17.73;;;11.50;99.70;;;;;;5034175;28;20124;-73
2022/11/13 07:20:55;;;;;;;25.50;17.85;;;11.50;99.60;;;;;;5047396;28;20583;-72
2022/11/13 07:23:21;;;;;;;28.70;17.45;;;11.50;99.70;;;;;;5055755;28;20036;-74
2022/11/13 07:25:47;;;;;;;27.00;17.48;;;11.50;99.60;;;;;;5051140;28;20029;-73
2022/11/13 07:28:12;;;;;;;25.38;16.70;;;11.50;99.50;;;;;;5054697;28;20025;-73
2022/11/13 07:30:38;;;;;;;24.20;16.10;;;11.50;99.50;;;;;;5052059;28;20099;-74
2022/11/13 07:33:04;;;;;;;22.48;17.20;;;11.50;99.40;;;;;;5046977;28;20045;-74
2022/11/13 07:35:29;;;;;;;21.95;17.23;;;11.50;99.40;;;;;;5046190;28;20029;-73
2022/11/13 07:37:56;;;;;;;25.05;17.77;;;11.50;99.40;;;;;;5051693;28;20078;-73
2022/11/13 07:40:21;;;;;;;26.55;17.27;;;11.60;99.30;;;;;;5050631;28;20079;-74
2022/11/13 07:42:47;;;;;;;21.08;16.88;;;11.60;99.10;;;;;;5052032;28;20409;-73
2022/11/13 07:45:12;;;;;;;29.13;17.80;;;11.70;98.80;;;;;;5051514;28;20474;-73
2022/11/13 07:47:38;;;;;;;23.75;17.08;;;11.70;98.60;;;;;;5052261;28;20470;-73
2022/11/13 07:50:04;;;;;;;28.27;18.38;;;11.80;98.60;;;;;;5052133;28;20040;-73
2022/11/13 07:52:29;;;;;;;21.85;15.57;;;11.80;98.40;;;;;;5051755;28;20029;-73
2022/11/13 07:54:55;;;;;;;24.48;16.85;;;11.90;98.50;;;;;;5037185;28;20136;-74
2022/11/13 07:57:21;;;;;;;23.55;16.52;;;12.30;98.10;;;;;;5053029;28;20045;-72
2022/11/13 07:59:47;;;;;;;20.50;15.80;;;12.40;97.80;;;;;;5053070;28;20094;-73
2022/11/13 08:02:14;;;;;;;19.90;16.20;;;12.30;97.60;;;;;;5055830;28;20493;-73
2022/11/13 08:04:40;;;;;;;17.38;14.38;;;12.20;97.50;;;;;;5055334;28;20025;-73
2022/11/13 08:07:07;;;;;;;18.10;14.98;;;12.20;97.60;;;;;;5055610;28;20033;-73
2022/11/13 08:09:32;;;;;;;16.08;14.38;;;12.10;97.60;;;;;;5036543;28;20017;-73
2022/11/13 08:11:58;;;;;;;17.17;14.27;;;12.10;97.60;;;;;;5049623;28;20032;-73
2022/11/13 08:14:23;;;;;;;15.23;13.63;;;12.20;97.50;;;;;;5050669;28;20101;-74
2022/11/13 08:16:49;;;;;;;15.38;13.55;;;12.40;97.40;;;;;;5049000;28;20029;-73
2022/11/13 08:19:14;;;;;;;14.73;13.23;;;12.40;97.40;;;;;;5052406;28;20538;-73
2022/11/13 08:21:40;;;;;;;15.23;13.60;;;12.50;97.40;;;;;;5049018;28;20041;-73
2022/11/13 08:24:06;;;;;;;15.13;13.57;;;12.50;97.30;;;;;;5050675;28;20049;-74
2022/11/13 08:26:31;;;;;;;15.50;13.90;;;12.30;97.30;;;;;;5044873;28;20457;-74
2022/11/13 08:28:57;;;;;;;16.48;13.57;;;11.80;98.00;;;;;;5053574;28;20031;-74
2022/11/13 08:31:22;;;;;;;15.27;13.68;;;11.50;98.50;;;;;;5063772;28;20060;-73
2022/11/13 08:33:49;;;;;;;17.52;13.45;;;11.90;98.30;;;;;;5051755;28;20508;-73
2022/11/13 08:36:14;;;;;;;17.83;14.63;;;12.20;97.80;;;;;;5049052;28;20096;-73
2022/11/13 08:38:40;;;;;;;20.13;15.98;;;12.30;97.50;;;;;;5046661;28;20025;-75
2022/11/13 08:41:06;;;;;;;19.55;15.93;;;12.40;97.50;;;;;;5037057;28;20048;-73
2022/11/13 08:43:31;;;;;;;19.80;16.13;;;12.50;97.60;;;;;;5037779;28;20068;-73
2022/11/13 08:45:57;;;;;;;21.08;16.83;;;12.50;97.60;;;;;;5047834;28;20033;-74
2022/11/13 08:48:23;;;;;;;18.35;16.38;;;12.40;97.70;;;;;;5053999;28;20096;-73
2022/11/13 08:50:53;;;;;;;20.45;16.85;;;12.30;97.80;;;;;;5057332;28;20082;-73
2022/11/13 08:53:20;;;;;;;18.27;16.23;;;12.40;97.90;;;;;;5053266;28;20033;-74
2022/11/13 08:55:46;;;;;;;20.08;15.95;;;12.50;97.90;;;;;;5054268;28;20025;-73
2022/11/13 08:58:11;;;;;;;18.10;15.93;;;12.60;97.80;;;;;;5047495;28;20116;-73
2022/11/13 09:00:37;;;;;;;16.85;15.15;;;12.60;97.90;;;;;;5058261;28;20033;-75
2022/11/13 09:03:02;;;;;;;16.42;14.82;;;12.60;97.90;;;;;;5053817;28;20029;-73
2022/11/13 09:05:28;;;;;;;17.05;15.38;;;12.60;97.90;;;;;;5054870;28;20040;-74
2022/11/13 09:07:59;;;;;;;17.98;15.60;;;12.60;97.90;;;;;;5047370;28;20083;-73
2022/11/13 09:10:25;;;;;;;16.45;14.75;;;12.50;97.90;;;;;;5051182;28;20051;-73
2022/11/13 09:13:02;;;;;;;18.70;15.95;;;12.50;97.90;;;;;;5051323;28;20108;-74
2022/11/13 09:15:29;;;;;;;16.00;14.23;;;12.50;98.10;;;;;;5027176;28;20367;-71
2022/11/13 09:17:56;;;;;;;17.27;14.73;;;12.60;98.40;;;;;;5035713;28;20029;-73
2022/11/13 09:20:22;;;;;;;16.92;14.32;;;12.50;98.30;;;;;;5058907;28;20025;-72
2022/11/13 09:22:47;;;;;;;17.80;13.10;;;12.60;98.50;;;;;;5064456;28;20479;-72
2022/11/13 09:25:13;;;;;;;17.33;13.32;;;12.70;98.40;;;;;;5062345;28;20439;-74
2022/11/13 09:27:39;;;;;;;16.08;13.68;;;12.70;98.20;;;;;;5050231;28;20013;-74
2022/11/13 09:30:05;;;;;;;16.70;14.93;;;12.50;98.40;;;;;;5054793;28;20087;-73
2022/11/13 09:32:30;;;;;;;17.50;15.57;;;12.50;98.60;;;;;;5055830;28;20049;-73
2022/11/13 09:34:56;;;;;;;16.40;14.55;;;12.50;98.80;;;;;;5051056;28;20033;-73
2022/11/13 09:37:21;;;;;;;16.48;14.80;;;12.50;98.90;;;;;;5059937;28;20033;-73
2022/11/13 09:39:47;;;;;;;18.02;14.77;;;12.60;98.90;;;;;;5048744;28;20021;-74
2022/11/13 09:42:19;;;;;;;16.50;14.30;;;12.60;98.80;;;;;;5052195;28;20382;-74
2022/11/13 09:44:50;;;;;;;;;;;12.60;98.90;;;;;;5061572;28;20167;-74
2022/11/13 09:47:36;;;;;;;17.00;14.13;;;12.80;98.90;;;;;;5043987;28;20389;-72
2022/11/13 09:50:11;;;;;;;17.20;13.80;;;12.80;98.80;;;;;;5052619;28;20060;-74
2022/11/13 09:52:40;;;;;;;18.25;13.70;;;12.80;98.70;;;;;;5057143;28;20432;-73
2022/11/13 09:55:11;;;;;;;14.43;11.73;;;12.90;98.80;;;;;;5064973;28;20031;-74
2022/11/13 09:57:55;;;;;;;17.65;13.02;;;13.10;98.50;;;;;;5054930;28;20075;-73
2022/11/13 10:00:21;;;;;;;15.30;13.52;;;13.00;98.50;;;;;;5060872;28;20079;-77
2022/11/13 10:03:08;;;;;;;16.15;12.93;;;13.10;98.40;;;;;;5050240;28;20102;-76
2022/11/13 10:06:01;;;;;;;21.55;13.30;;;12.90;98.50;;;;;;5041839;28;20078;-74
2022/11/13 10:08:47;;;;;;;16.15;12.88;;;12.90;98.50;;;;;;5040781;28;20075;-73
2022/11/13 10:11:35;;;;;;;16.08;12.90;;;13.10;98.40;;;;;;5039535;28;20137;-75
2022/11/13 10:14:10;;;;;;;14.70;12.88;;;13.00;98.40;;;;;;5042039;28;20102;-75
2022/11/13 10:16:44;;;;;;;16.95;12.27;;;13.00;98.60;;;;;;5042721;28;20441;-73
2022/11/13 10:19:40;;;;;;;16.13;13.05;;;12.90;98.60;;;;;;5047687;28;20051;-73
2022/11/13 10:22:19;;;;;;;18.52;13.40;;;12.80;98.80;;;;;;5044748;28;20370;-74
2022/11/13 10:24:49;;;;;;;13.98;12.40;;;12.90;98.80;;;;;;5047288;28;20082;-72
2022/11/13 10:27:15;;;;;;;15.63;13.45;;;12.80;98.80;;;;;;5037964;28;20024;-74
2022/11/13 10:29:41;;;;;;;19.98;14.38;;;12.90;99.10;;;;;;5047622;28;20040;-73
2022/11/13 10:32:23;;;;;;;19.85;13.55;;;13.00;98.90;;;;;;5041023;28;20037;-74
2022/11/13 10:34:59;;;;;;;15.45;13.68;;;13.10;98.80;;;;;;5042416;28;21120;-75
2022/11/13 10:37:46;;;;;;;14.77;13.25;;;13.30;98.70;;;;;;5045789;28;20029;-75
2022/11/13 10:40:30;;;;;;;13.25;11.85;;;13.20;98.80;;;;;;5045265;28;20488;-74
2022/11/13 10:43:21;;;;;;;14.80;12.52;;;13.10;98.90;;;;;;5037495;28;20029;-74
2022/11/13 10:45:58;;;;;;;13.27;11.98;;;13.00;98.90;;;;;;5050694;28;20029;-75
2022/11/13 10:48:35;;;;;;;15.43;12.65;;;13.10;98.80;;;;;;5050429;28;20064;-77
2022/11/13 10:51:06;;;;;;;14.43;12.93;;;13.20;98.80;;;;;;5050937;28;20025;-74
2022/11/13 10:53:41;;;;;;;15.13;13.57;;;13.20;98.80;;;;;;5051697;28;20432;-74
2022/11/13 10:56:19;;;;;;;14.15;12.73;;;13.20;98.80;;;;;;5049464;28;20032;-74
2022/11/13 10:58:44;;;;;;;14.45;12.88;;;13.30;98.70;;;;;;5043698;28;20508;-74
2022/11/13 11:01:24;;;;;;;13.98;11.60;;;13.30;98.80;;;;;;5033257;28;20047;-74
2022/11/13 11:03:50;;;;;;;14.65;12.15;;;13.50;98.80;;;;;;5031530;28;20186;-74
2022/11/13 11:06:16;;;;;;;21.58;12.57;;;13.70;98.70;;;;;;5030530;28;20153;-74
2022/11/13 11:08:41;;;;;;;15.43;11.57;;;13.60;98.60;;;;;;5037585;28;21193;-73
2022/11/13 11:14:21;;;;;;;13.20;11.80;;;13.60;99.00;;;;;;5039134;28;20504;-73
2022/11/13 11:16:50;;;;;;;12.43;10.70;;;13.60;98.90;;;;;;5043414;28;20036;-73
2022/11/13 11:19:18;;;;;;;11.15;10.05;;;13.60;98.80;;;;;;5038202;28;20535;-75
2022/11/13 11:21:45;;;;;;;12.50;10.48;;;13.50;98.70;;;;;;5038066;28;20481;-74
2022/11/13 11:24:20;;;;;;;11.23;9.90;;;13.60;98.60;;;;;;5037206;28;20021;-73
2022/11/13 11:27:03;;;;;;;13.50;10.52;;;13.70;98.50;;;;;;5042376;28;20025;-74
2022/11/13 11:29:43;;;;;;;10.57;9.48;;;13.70;98.60;;;;;;5046239;28;20021;-74
2022/11/13 11:32:13;;;;;;;12.10;10.20;;;13.80;98.40;;;;;;5043616;28;20124;-74
2022/11/13 11:35:05;;;;;;;12.65;9.88;;;13.80;98.50;;;;;;5039226;28;20032;-75
2022/11/13 11:37:37;;;;;;;15.02;10.10;;;13.80;98.80;;;;;;5032052;28;20052;-76
2022/11/13 11:40:16;;;;;;;12.80;10.07;;;13.90;98.60;;;;;;5050601;28;20074;-76
2022/11/13 11:43:10;;;;;;;12.40;9.82;;;13.80;98.60;;;;;;5046354;28;20029;-75
2022/11/13 11:45:40;;;;;;;9.40;8.38;;;13.80;98.40;;;;;;5062303;28;20071;-75
2022/11/13 11:48:26;;;;;;;10.82;8.45;;;13.90;98.00;;;;;;5059879;28;20500;-75
2022/11/13 11:51:25;;;;;;;10.68;8.75;;;13.80;98.00;;;;;;5040358;28;20025;-75
2022/11/13 11:53:59;;;;;;;12.20;8.82;;;13.90;98.00;;;;;;5045887;28;20048;-74
2022/11/13 11:56:38;;;;;;;14.75;8.95;;;13.90;98.10;;;;;;5049273;28;20017;-73
2022/11/13 11:59:24;;;;;;;10.52;8.32;;;14.00;98.00;;;;;;5046364;28;20018;-73
2022/11/13 12:02:01;;;;;;;9.95;8.90;;;14.00;98.30;;;;;;5039026;28;20036;-72
2022/11/13 12:05:05;;;;;;;9.00;8.10;;;14.00;97.80;;;;;;5049825;28;20029;-73
2022/11/13 12:07:45;;;;;;;9.55;8.60;;;14.00;97.90;;;;;;5044095;28;20032;-74
2022/11/13 12:10:33;;;;;;;9.27;7.68;;;14.00;97.70;;;;;;5051728;28;20022;-74
2022/11/13 12:13:10;;;;;;;9.82;7.95;;;14.10;97.40;;;;;;5030321;28;20128;-73
2022/11/13 12:16:00;;;;;;;9.18;7.18;;;14.00;97.60;;;;;;5031081;28;20028;-73
2022/11/13 12:18:49;;;;;;;10.45;8.23;;;14.10;97.50;;;;;;5035109;28;20021;-74
2022/11/13 12:21:43;;;;;;;10.35;8.82;;;14.10;97.60;;;;;;5046047;28;20445;-73
2022/11/13 12:24:28;;;;;;;15.85;10.57;;;14.20;98.40;;;;;;5041297;28;20033;-74
2022/11/13 12:26:56;;;;;;;13.93;10.15;;;14.20;99.90;;;;;;5038367;28;20114;-73
2022/11/13 12:30:00;;;;;;;12.25;9.68;;;14.20;99.90;;;;;;5044738;28;20029;-73
2022/11/13 12:32:41;;;;;;;11.85;10.00;;;14.20;99.90;;;;;;5025132;28;20490;-75
2022/11/13 12:35:22;;;;;;;13.60;10.60;;;14.20;99.90;;;;;;5046189;28;20513;-74
2022/11/13 12:38:02;;;;;;;18.38;13.88;;;14.30;99.90;;;;;;5055266;28;20066;-74
2022/11/13 12:40:48;;;;;;;15.27;13.02;;;14.20;99.90;;;;;;5051887;28;20044;-74
2022/11/13 12:43:33;;;;;;;18.98;15.40;;;14.30;99.90;;;;;;5063116;28;20527;-74
2022/11/13 12:46:07;;;;;;;14.75;11.88;;;14.30;99.90;;;;;;5048606;28;20024;-76